createdAt,value
2019-04-14T00:02:49.325Z,15.15
2019-04-14T00:05:23.188Z,22.05
2019-04-14T00:07:56.364Z,22.93
2019-04-14T00:10:31.089Z,24.90
2019-04-14T00:13:04.821Z,21.07
2019-04-14T00:18:11.843Z,15.58
2019-04-14T00:20:45.225Z,23.45
2019-04-14T00:23:19.478Z,19.37
2019-04-14T00:25:54.434Z,21.00
2019-04-14T00:28:40.388Z,20.80
2019-04-14T00:31:14.993Z,19.35
2019-04-14T00:33:49.861Z,15.08
2019-04-14T00:36:43.782Z,18.25
2019-04-14T00:39:33.535Z,24.15
2019-04-14T00:42:24.222Z,22.50
2019-04-14T00:45:02.819Z,22.62
2019-04-14T00:47:51.705Z,26.62
2019-04-14T00:50:39.190Z,23.05
2019-04-14T00:53:12.553Z,22.15
2019-04-14T00:55:46.573Z,26.25
2019-04-14T00:58:19.761Z,24.32
2019-04-14T01:00:53.807Z,27.98
2019-04-14T01:03:28.737Z,25.08
2019-04-14T01:06:07.630Z,26.17
2019-04-14T01:08:42.576Z,22.37
2019-04-14T01:11:24.889Z,25.10
2019-04-14T01:14:01.720Z,20.85
2019-04-14T01:16:36.442Z,22.52
2019-04-14T01:19:11.554Z,17.77
2019-04-14T01:21:48.139Z,24.70
2019-04-14T01:24:42.441Z,27.70
2019-04-14T01:27:08.389Z,23.00
2019-04-14T01:29:42.739Z,24.98
2019-04-14T01:32:21.826Z,26.05
2019-04-14T01:35:00.894Z,24.40
2019-04-14T01:37:33.341Z,25.88
2019-04-14T01:40:07.978Z,32.00
2019-04-14T01:42:44.116Z,27.20
2019-04-14T01:45:25.328Z,20.70
2019-04-14T01:48:00.009Z,24.52
2019-04-14T01:50:45.754Z,23.80
2019-04-14T01:53:29.674Z,27.70
2019-04-14T01:58:51.016Z,14.85
2019-04-14T02:01:30.361Z,26.20
2019-04-14T02:04:05.072Z,30.00
2019-04-14T02:06:39.884Z,27.62
2019-04-14T02:09:14.381Z,29.60
2019-04-14T02:11:48.851Z,27.05
2019-04-14T02:14:23.364Z,30.95
2019-04-14T02:16:59.579Z,22.25
2019-04-14T02:19:32.747Z,23.85
2019-04-14T02:22:07.353Z,27.15
2019-04-14T02:24:41.636Z,31.27
2019-04-14T02:27:15.164Z,22.62
2019-04-14T02:29:49.481Z,25.45
2019-04-14T02:32:54.991Z,25.25
2019-04-14T02:35:32.694Z,25.88
2019-04-14T02:38:03.486Z,22.37
2019-04-14T02:40:55.919Z,19.10
2019-04-14T02:43:14.539Z,18.42
2019-04-14T02:45:55.814Z,23.38
2019-04-14T02:50:55.886Z,23.60
2019-04-14T02:53:42.167Z,20.57
2019-04-14T02:58:48.358Z,19.35
2019-04-14T03:03:54.253Z,20.17
2019-04-14T03:06:25.670Z,23.42
2019-04-14T03:09:13.027Z,26.23
2019-04-14T03:11:43.931Z,24.20
2019-04-14T03:14:15.618Z,25.37
2019-04-14T03:20:07.501Z,25.92
2019-04-14T03:22:49.848Z,19.50
2019-04-14T03:25:22.562Z,28.45
2019-04-14T03:28:37.867Z,24.10
2019-04-14T03:38:58.825Z,20.90
2019-04-14T03:41:29.175Z,24.23
2019-04-14T03:44:01.272Z,21.85
2019-04-14T03:46:45.148Z,27.10
2019-04-14T03:49:17.776Z,24.02
2019-04-14T03:51:57.769Z,29.82
2019-04-14T03:54:20.506Z,21.70
2019-04-14T03:56:51.673Z,23.15
2019-04-14T03:59:26.013Z,27.58
2019-04-14T04:02:00.761Z,21.75
2019-04-14T04:04:35.782Z,20.60
2019-04-14T04:07:10.232Z,24.10
2019-04-14T04:09:58.265Z,23.90
2019-04-14T04:12:31.937Z,23.07
2019-04-14T04:17:54.375Z,22.13
2019-04-14T04:20:50.153Z,26.05
2019-04-14T04:23:48.969Z,26.33
2019-04-14T04:26:30.032Z,18.60
2019-04-14T04:29:11.228Z,26.65
2019-04-14T04:32:16.454Z,24.30
2019-04-14T04:35:21.721Z,18.65
2019-04-14T04:37:58.569Z,22.90
2019-04-14T04:40:33.339Z,26.90
2019-04-14T04:43:07.895Z,19.37
2019-04-14T04:45:41.023Z,20.48
2019-04-14T04:48:15.124Z,21.55
2019-04-14T04:50:49.849Z,26.95
2019-04-14T04:53:24.789Z,27.02
2019-04-14T04:55:59.301Z,17.27
2019-04-14T04:58:32.840Z,23.45
2019-04-14T05:01:06.176Z,25.92
2019-04-14T05:03:40.703Z,24.98
2019-04-14T05:07:12.166Z,27.13
2019-04-14T05:10:13.087Z,18.98
2019-04-14T05:12:50.263Z,23.90
2019-04-14T05:15:42.312Z,24.05
2019-04-14T05:18:26.841Z,28.02
2019-04-14T05:20:59.929Z,23.87
2019-04-14T05:23:34.254Z,24.65
2019-04-14T05:26:07.658Z,27.10
2019-04-14T05:28:41.664Z,22.25
2019-04-14T05:31:16.356Z,23.38
2019-04-14T05:33:51.163Z,25.05
2019-04-14T05:36:24.635Z,22.70
2019-04-14T05:38:58.126Z,12.68
2019-04-14T05:41:32.906Z,29.55
2019-04-14T05:44:06.417Z,26.85
2019-04-14T05:46:40.352Z,17.37
2019-04-14T05:49:24.473Z,28.52
2019-04-14T05:51:48.569Z,24.27
2019-04-14T05:54:21.740Z,26.60
2019-04-14T05:56:55.789Z,23.20
2019-04-14T05:59:32.901Z,18.32
2019-04-14T06:02:07.278Z,27.07
2019-04-14T06:04:41.770Z,28.95
2019-04-14T06:07:15.523Z,23.60
2019-04-14T06:09:48.736Z,23.15
2019-04-14T06:12:22.271Z,26.27
2019-04-14T06:14:56.076Z,28.35
2019-04-14T06:17:34.477Z,30.20
2019-04-14T06:20:14.017Z,27.70
2019-04-14T06:22:48.786Z,29.10
2019-04-14T06:25:21.625Z,24.90
2019-04-14T06:27:55.136Z,22.82
2019-04-14T06:30:46.567Z,27.05
2019-04-14T06:33:42.733Z,26.57
2019-04-14T06:36:34.800Z,19.23
2019-04-14T06:39:18.933Z,22.98
2019-04-14T06:41:52.566Z,28.85
2019-04-14T06:46:58.814Z,28.75
2019-04-14T06:49:34.215Z,20.72
2019-04-14T06:52:08.510Z,28.32
2019-04-14T06:54:41.573Z,22.53
2019-04-14T06:59:47.559Z,20.88
2019-04-14T07:02:21.250Z,20.62
2019-04-14T07:04:57.039Z,25.97
2019-04-14T07:07:31.049Z,26.68
2019-04-14T07:10:04.756Z,28.60
2019-04-14T07:12:38.562Z,28.95
2019-04-14T07:15:11.913Z,27.05
2019-04-14T07:17:45.283Z,27.32
2019-04-14T07:20:18.645Z,30.08
2019-04-14T07:22:53.939Z,25.70
2019-04-14T07:25:27.338Z,26.37
2019-04-14T07:28:00.517Z,28.00
2019-04-14T07:30:44.219Z,27.32
2019-04-14T07:33:34.169Z,19.98
2019-04-14T07:36:45.219Z,18.15
2019-04-14T07:39:33.861Z,25.50
2019-04-14T07:42:17.254Z,27.15
2019-04-14T07:45:04.539Z,23.22
2019-04-14T07:47:46.912Z,24.65
2019-04-14T07:50:54.507Z,25.72
2019-04-14T07:53:45.730Z,24.32
2019-04-14T07:56:53.731Z,31.68
2019-04-14T07:59:33.437Z,29.75
2019-04-14T08:02:25.598Z,25.30
2019-04-14T08:05:04.483Z,28.15
2019-04-14T08:07:41.979Z,19.07
2019-04-14T08:10:16.040Z,26.20
2019-04-14T08:12:49.982Z,22.98
2019-04-14T08:15:23.728Z,23.77
2019-04-14T08:17:57.636Z,21.23
2019-04-14T08:20:32.891Z,23.05
2019-04-14T08:23:06.683Z,21.82
2019-04-14T08:25:41.103Z,20.65
2019-04-14T08:28:14.732Z,19.57
2019-04-14T08:30:48.324Z,15.13
2019-04-14T08:33:22.892Z,21.20
2019-04-14T08:35:56.946Z,25.12
2019-04-14T08:38:30.875Z,19.23
2019-04-14T08:41:04.450Z,23.77
2019-04-14T08:43:56.255Z,23.85
2019-04-14T08:46:42.495Z,20.40
2019-04-14T08:49:22.517Z,18.55
2019-04-14T08:52:24.369Z,25.20
2019-04-14T08:55:16.963Z,20.72
2019-04-14T08:58:05.144Z,16.80
2019-04-14T09:01:12.278Z,20.10
2019-04-14T09:03:59.002Z,20.55
2019-04-14T09:06:54.119Z,21.12
2019-04-14T09:09:40.600Z,19.10
2019-04-14T09:12:24.168Z,18.98
2019-04-14T09:17:31.162Z,18.57
2019-04-14T09:20:04.460Z,14.28
2019-04-14T09:22:37.640Z,18.65
2019-04-14T09:25:11.321Z,17.60
2019-04-14T09:27:45.050Z,20.17
2019-04-14T09:30:19.002Z,20.80
2019-04-14T09:32:53.630Z,21.75
2019-04-14T09:35:27.618Z,20.97
2019-04-14T09:38:01.235Z,16.82
2019-04-14T09:40:35.047Z,19.73
2019-04-14T09:43:11.386Z,18.42
2019-04-14T09:45:45.238Z,20.88
2019-04-14T09:48:18.659Z,20.92
2019-04-14T09:51:04.258Z,21.00
2019-04-14T09:53:29.022Z,21.82
2019-04-14T09:58:35.252Z,16.57
2019-04-14T10:01:10.967Z,18.92
2019-04-14T10:03:43.689Z,21.05
2019-04-14T10:06:16.781Z,20.40
2019-04-14T10:08:51.316Z,20.55
2019-04-14T10:11:25.965Z,22.05
2019-04-14T10:13:59.663Z,24.32
2019-04-14T10:16:33.573Z,22.98
2019-04-14T10:19:07.245Z,22.93
2019-04-14T10:21:39.972Z,21.80
2019-04-14T10:24:12.751Z,20.02
2019-04-14T10:26:46.251Z,18.37
2019-04-14T10:29:23.351Z,22.87
2019-04-14T10:31:56.832Z,18.77
2019-04-14T10:34:31.680Z,23.65
2019-04-14T10:37:04.869Z,20.57
2019-04-14T10:39:37.520Z,18.42
2019-04-14T10:44:42.604Z,22.82
2019-04-14T10:47:15.619Z,20.68
2019-04-14T10:49:48.475Z,16.65
2019-04-14T10:52:21.639Z,20.43
2019-04-14T10:54:55.819Z,22.15
2019-04-14T10:57:28.920Z,17.87
2019-04-14T11:00:05.523Z,22.22
2019-04-14T11:02:39.856Z,20.60
2019-04-14T11:05:14.744Z,23.67
2019-04-14T11:07:50.678Z,18.90
2019-04-14T11:10:25.782Z,15.08
2019-04-14T11:12:59.460Z,22.58
2019-04-14T11:15:33.464Z,18.67
2019-04-14T11:18:08.091Z,21.50
2019-04-14T11:20:41.837Z,15.57
2019-04-14T11:23:14.682Z,19.37
2019-04-14T11:25:48.220Z,17.62
2019-04-14T11:28:22.940Z,15.47
2019-04-14T11:30:57.456Z,17.70
2019-04-14T11:33:48.872Z,19.00
2019-04-14T11:36:45.497Z,17.80
2019-04-14T11:39:19.969Z,15.32
2019-04-14T11:41:55.649Z,14.10
2019-04-14T11:44:29.266Z,20.40
2019-04-14T11:47:04.106Z,17.00
2019-04-14T11:49:38.259Z,16.47
2019-04-14T11:52:11.291Z,17.07
2019-04-14T11:54:44.216Z,20.50
2019-04-14T12:00:02.381Z,15.38
2019-04-14T12:02:53.945Z,21.67
2019-04-14T12:05:36.126Z,15.73
2019-04-14T12:08:18.111Z,17.90
2019-04-14T12:10:50.749Z,14.97
2019-04-14T12:15:55.443Z,16.70
2019-04-14T12:18:29.029Z,19.50
2019-04-14T12:21:02.339Z,15.77
2019-04-14T12:23:35.406Z,15.93
2019-04-14T12:26:08.382Z,17.73
2019-04-14T12:28:42.694Z,20.73
2019-04-14T12:31:15.944Z,17.70
2019-04-14T12:33:49.467Z,16.93
2019-04-14T12:36:23.223Z,19.73
2019-04-14T12:38:56.617Z,17.77
2019-04-14T12:41:37.848Z,19.50
2019-04-14T12:44:28.708Z,15.73
2019-04-14T12:47:12.581Z,17.07
2019-04-14T12:49:47.660Z,15.70
2019-04-14T12:52:23.013Z,16.33
2019-04-14T12:54:56.503Z,14.47
2019-04-14T12:57:47.058Z,14.40
2019-04-14T13:00:27.335Z,13.13
2019-04-14T13:03:00.940Z,16.90
2019-04-14T13:05:33.712Z,15.43
2019-04-14T13:08:06.477Z,15.20
2019-04-14T13:10:39.639Z,14.33
2019-04-14T13:13:13.170Z,12.80
2019-04-14T13:15:46.565Z,14.33
2019-04-14T13:18:20.114Z,13.73
2019-04-14T13:20:53.486Z,13.13
2019-04-14T13:23:27.246Z,14.50
2019-04-14T13:26:01.065Z,17.67
2019-04-14T13:28:34.146Z,11.47
2019-04-14T13:31:07.391Z,15.03
2019-04-14T13:33:42.458Z,10.45
2019-04-14T13:36:17.326Z,12.80
2019-04-14T13:38:51.461Z,11.28
2019-04-14T13:41:25.872Z,11.15
2019-04-14T13:44:00.829Z,10.45
2019-04-14T13:46:34.823Z,7.95
2019-04-14T13:49:10.398Z,10.72
2019-04-14T13:51:43.936Z,11.55
2019-04-14T13:54:18.170Z,10.43
2019-04-14T13:56:57.300Z,10.18
2019-04-14T13:59:31.479Z,10.15
2019-04-14T14:02:04.523Z,7.83
2019-04-14T14:04:38.107Z,8.55
2019-04-14T14:07:12.362Z,7.42
2019-04-14T14:09:46.130Z,5.92
2019-04-14T14:12:44.267Z,8.65
2019-04-14T14:15:29.562Z,8.45
2019-04-14T14:18:22.589Z,7.12
2019-04-14T14:21:06.942Z,6.70
2019-04-14T14:23:59.381Z,8.70
2019-04-14T14:26:34.146Z,7.62
2019-04-14T14:29:07.767Z,7.45
2019-04-14T14:31:42.029Z,6.28
2019-04-14T14:34:15.510Z,6.83
2019-04-14T14:36:49.302Z,6.55
2019-04-14T14:39:31.639Z,6.90
2019-04-14T14:42:05.533Z,7.33
2019-04-14T14:44:51.785Z,5.37
2019-04-14T14:47:28.315Z,6.17
2019-04-14T14:50:10.609Z,6.95
2019-04-14T14:52:44.722Z,6.00
2019-04-14T14:55:17.984Z,5.90
2019-04-14T15:00:34.927Z,5.08
2019-04-14T15:03:08.833Z,4.95
2019-04-14T15:05:42.951Z,5.67
2019-04-14T15:08:20.615Z,4.67
2019-04-14T15:10:53.227Z,4.47
2019-04-14T15:13:27.337Z,4.97
2019-04-14T15:16:01.814Z,5.37
2019-04-14T15:18:35.805Z,6.15
2019-04-14T15:21:09.786Z,5.97
2019-04-14T15:23:43.827Z,4.83
2019-04-14T15:26:18.412Z,5.15
2019-04-14T15:28:51.640Z,5.20
2019-04-14T15:31:24.555Z,5.33
2019-04-14T15:33:57.511Z,4.97
2019-04-14T15:36:31.048Z,5.15
2019-04-14T15:39:07.596Z,5.37
2019-04-14T15:41:41.520Z,5.80
2019-04-14T15:44:15.735Z,5.17
2019-04-14T15:46:49.567Z,6.83
2019-04-14T15:49:23.946Z,4.90
2019-04-14T15:51:57.279Z,5.95
2019-04-14T15:54:30.329Z,5.85
2019-04-14T15:57:17.540Z,5.58
2019-04-14T16:00:11.165Z,6.53
2019-04-14T16:02:54.533Z,4.97
2019-04-14T16:05:32.496Z,7.62
2019-04-14T16:08:22.776Z,5.37
2019-04-14T16:11:09.818Z,5.75
2019-04-14T16:14:05.197Z,6.25
2019-04-14T16:17:00.611Z,6.12
2019-04-14T16:19:40.223Z,6.17
2019-04-14T16:22:13.331Z,5.83
2019-04-14T16:24:54.542Z,6.47
2019-04-14T16:27:55.432Z,3.72
2019-04-14T16:30:46.695Z,5.55
2019-04-14T16:33:50.951Z,5.10
2019-04-14T16:36:28.100Z,7.22
2019-04-14T16:39:01.462Z,7.15
2019-04-14T16:41:34.696Z,5.65
2019-04-14T16:44:08.077Z,5.92
2019-04-14T16:49:20.164Z,6.28
2019-04-14T16:52:02.493Z,7.50
2019-04-14T16:54:48.888Z,7.20
2019-04-14T16:57:45.099Z,7.55
2019-04-14T17:00:25.676Z,7.87
2019-04-14T17:02:59.820Z,9.23
2019-04-14T17:05:41.760Z,6.53
2019-04-14T17:08:20.414Z,7.28
2019-04-14T17:10:54.502Z,5.75
2019-04-14T17:13:31.327Z,6.40
2019-04-14T17:16:31.738Z,7.47
2019-04-14T17:19:20.512Z,7.53
2019-04-14T17:22:19.921Z,7.33
2019-04-14T17:25:12.523Z,9.28
2019-04-14T17:28:07.005Z,7.30
2019-04-14T17:30:45.280Z,5.78
2019-04-14T17:33:26.969Z,8.50
2019-04-14T17:36:17.579Z,8.15
2019-04-14T17:39:08.246Z,7.65
2019-04-14T17:42:24.360Z,8.35
2019-04-14T17:45:10.649Z,6.90
2019-04-14T17:48:12.746Z,7.58
2019-04-14T17:50:56.560Z,6.15
2019-04-14T17:53:54.038Z,6.85
2019-04-14T17:56:42.746Z,6.37
2019-04-14T17:59:25.512Z,8.48
2019-04-14T18:02:20.478Z,6.57
2019-04-14T18:05:11.035Z,7.15
2019-04-14T18:08:00.744Z,5.90
2019-04-14T18:10:58.318Z,8.40
2019-04-14T18:13:45.953Z,7.42
2019-04-14T18:16:38.722Z,10.05
2019-04-14T18:19:28.464Z,8.73
2019-04-14T18:22:01.979Z,7.17
2019-04-14T18:27:07.777Z,6.78
2019-04-14T18:29:52.573Z,6.22
2019-04-14T18:32:38.793Z,7.35
2019-04-14T18:35:17.220Z,6.37
2019-04-14T18:38:16.658Z,6.42
2019-04-14T18:40:54.839Z,6.05
2019-04-14T18:43:50.401Z,6.92
2019-04-14T18:46:51.548Z,6.37
2019-04-14T18:49:46.323Z,6.97
2019-04-14T18:52:25.902Z,8.00
2019-04-14T18:55:17.440Z,7.83
2019-04-14T18:58:23.410Z,6.22
2019-04-14T19:01:08.253Z,9.13
2019-04-14T19:03:42.750Z,7.45
2019-04-14T19:06:16.588Z,5.83
2019-04-14T19:08:51.244Z,7.70
2019-04-14T19:11:58.376Z,8.73
2019-04-14T19:14:39.276Z,6.30
2019-04-14T19:17:23.243Z,4.90
2019-04-14T19:20:02.081Z,4.92
2019-04-14T19:22:33.654Z,6.50
2019-04-14T19:25:08.764Z,7.20
2019-04-14T19:27:43.760Z,8.38
2019-04-14T19:30:17.265Z,6.78
2019-04-14T19:32:51.608Z,6.55
2019-04-14T19:35:26.870Z,8.43
2019-04-14T19:38:00.665Z,7.10
2019-04-14T19:40:35.736Z,7.85
2019-04-14T19:43:22.924Z,8.50
2019-04-14T19:45:46.035Z,8.28
2019-04-14T19:48:19.150Z,7.83
2019-04-14T19:50:53.115Z,7.53
2019-04-14T19:53:27.677Z,8.30
2019-04-14T19:56:02.027Z,7.40
2019-04-14T19:58:35.878Z,7.05
2019-04-14T20:01:10.653Z,7.78
2019-04-14T20:03:44.507Z,6.85
2019-04-14T20:06:18.880Z,5.75
2019-04-14T20:08:53.079Z,7.35
2019-04-14T20:11:27.374Z,6.78
2019-04-14T20:14:00.753Z,5.03
2019-04-14T20:16:59.281Z,6.00
2019-04-14T20:19:49.459Z,6.87
2019-04-14T20:22:41.182Z,9.35
2019-04-14T20:25:34.092Z,7.25
2019-04-14T20:28:19.224Z,7.30
2019-04-14T20:31:18.803Z,7.45
2019-04-14T20:33:52.300Z,9.60
2019-04-14T20:36:26.194Z,6.95
2019-04-14T20:39:01.109Z,8.78
2019-04-14T20:41:35.079Z,8.53
2019-04-14T20:44:09.973Z,9.33
2019-04-14T20:46:43.227Z,8.50
2019-04-14T20:49:21.123Z,8.53
2019-04-14T20:51:56.663Z,6.78
2019-04-14T20:54:31.155Z,7.12
2019-04-14T20:57:08.232Z,6.92
2019-04-14T20:59:42.166Z,7.12
2019-04-14T21:02:53.247Z,9.48
2019-04-14T21:05:53.101Z,7.15
2019-04-14T21:08:51.887Z,8.88
2019-04-14T21:11:33.684Z,8.28
2019-04-14T21:14:22.720Z,7.10
2019-04-14T21:17:00.605Z,5.80
2019-04-14T21:20:08.184Z,8.73
2019-04-14T21:22:55.398Z,7.87
2019-04-14T21:25:38.747Z,12.33
2019-04-14T21:28:30.172Z,8.65
2019-04-14T21:31:10.261Z,7.35
2019-04-14T21:34:04.142Z,9.10
2019-04-14T21:36:52.419Z,8.78
2019-04-14T21:39:33.998Z,8.38
2019-04-14T21:42:08.411Z,6.40
2019-04-14T21:44:43.946Z,9.15
2019-04-14T21:47:19.215Z,8.35
2019-04-14T21:49:52.895Z,7.75
2019-04-14T21:52:41.014Z,8.15
2019-04-14T21:55:14.675Z,8.03
2019-04-14T21:58:04.980Z,9.03
2019-04-14T22:01:55.103Z,9.45
2019-04-14T22:04:47.865Z,7.35
2019-04-14T22:07:32.683Z,11.80
2019-04-14T22:10:27.157Z,8.40
2019-04-14T22:13:00.712Z,9.20
2019-04-14T22:18:06.072Z,8.50
2019-04-14T22:20:42.618Z,8.63
2019-04-14T22:23:16.034Z,9.40
2019-04-14T22:28:20.864Z,8.30
2019-04-14T22:30:54.218Z,10.40
2019-04-14T22:33:27.977Z,9.95
2019-04-14T22:36:02.025Z,10.25
2019-04-14T22:38:35.368Z,11.55
2019-04-14T22:41:08.447Z,12.80
2019-04-14T22:43:41.223Z,11.10
2019-04-14T22:46:14.528Z,10.28
2019-04-14T22:48:48.050Z,10.53
2019-04-14T22:51:21.764Z,9.17
2019-04-14T22:53:57.467Z,10.58
2019-04-14T22:56:39.181Z,8.98
2019-04-14T22:59:05.907Z,9.70
2019-04-14T23:01:41.352Z,9.33
2019-04-14T23:04:36.652Z,10.25
2019-04-14T23:07:31.560Z,7.20
2019-04-14T23:10:30.338Z,11.25
2019-04-14T23:13:28.355Z,9.60
2019-04-14T23:16:27.706Z,11.05
2019-04-14T23:19:06.109Z,11.15
2019-04-14T23:21:51.517Z,10.72
2019-04-14T23:24:34.444Z,12.00
2019-04-14T23:27:07.793Z,12.70
2019-04-14T23:29:41.192Z,10.20
2019-04-14T23:32:14.381Z,9.10
2019-04-14T23:34:47.531Z,12.95
2019-04-14T23:37:20.146Z,9.60
2019-04-14T23:39:53.355Z,12.55
2019-04-14T23:44:58.433Z,11.18
2019-04-14T23:47:31.632Z,10.38
2019-04-14T23:50:05.287Z,10.38
2019-04-14T23:52:38.502Z,11.53
2019-04-14T23:55:11.749Z,10.82
2019-04-14T23:57:45.233Z,12.88
